createdAt,value
2018-12-24T00:02:04.096Z,101195.45
2018-12-24T00:04:34.627Z,101189.36
2018-12-24T00:07:05.196Z,101195.02
2018-12-24T00:09:35.734Z,101198.09
2018-12-24T00:12:07.218Z,101202.45
2018-12-24T00:14:38.009Z,101198.95
2018-12-24T00:17:08.565Z,101202.02
2018-12-24T00:19:39.095Z,101208.14
2018-12-24T00:22:10.023Z,101207.70
2018-12-24T00:24:40.563Z,101211.19
2018-12-24T00:27:11.491Z,101216.42
2018-12-24T00:29:42.506Z,101212.48
2018-12-24T00:32:13.366Z,101217.73
2018-12-24T00:34:43.908Z,101212.50
2018-12-24T00:37:14.832Z,101219.92
2018-12-24T00:39:45.358Z,101219.48
2018-12-24T00:42:16.202Z,101219.05
2018-12-24T00:44:46.996Z,101216.42
2018-12-24T00:47:17.818Z,101220.80
2018-12-24T00:49:48.348Z,101219.94
2018-12-24T00:52:18.997Z,101229.55
2018-12-24T00:54:49.531Z,101230.41
2018-12-24T00:57:20.092Z,101228.23
2018-12-24T00:59:50.625Z,101229.98
2018-12-24T01:02:21.181Z,101234.78
2018-12-24T01:04:51.789Z,101240.03
2018-12-24T01:07:22.349Z,101247.90
2018-12-24T01:09:52.888Z,101244.84
2018-12-24T01:12:24.732Z,101246.14
2018-12-24T01:14:55.572Z,101253.13
2018-12-24T01:17:26.129Z,101253.13
2018-12-24T01:19:56.653Z,101260.13
2018-12-24T01:22:27.327Z,101257.94
2018-12-24T01:24:57.838Z,101258.81
2018-12-24T01:27:28.665Z,101261.43
2018-12-24T01:29:59.203Z,101264.50
2018-12-24T01:32:30.154Z,101270.19
2018-12-24T01:35:00.690Z,101266.25
2018-12-24T01:37:31.533Z,101267.98
2018-12-24T01:40:02.090Z,101267.55
2018-12-24T01:42:33.492Z,101267.98
2018-12-24T01:45:04.411Z,101269.30
2018-12-24T01:47:34.966Z,101276.73
2018-12-24T01:50:05.601Z,101281.55
2018-12-24T01:52:36.237Z,101279.36
2018-12-24T01:55:06.778Z,101281.98
2018-12-24T01:57:37.330Z,101287.66
2018-12-24T02:00:07.864Z,101290.28
2018-12-24T02:02:38.750Z,101290.72
2018-12-24T02:05:09.291Z,101288.09
2018-12-24T02:07:39.912Z,101290.72
2018-12-24T02:10:10.450Z,101297.70
2018-12-24T02:12:42.394Z,101295.11
2018-12-24T02:15:13.198Z,101294.21
2018-12-24T02:17:43.819Z,101298.58
2018-12-24T02:20:14.349Z,101300.33
2018-12-24T02:22:44.909Z,101302.11
2018-12-24T02:25:15.447Z,101300.36
2018-12-24T02:27:46.289Z,101307.32
2018-12-24T02:30:16.914Z,101300.77
2018-12-24T02:32:47.864Z,101303.39
2018-12-24T02:35:18.390Z,101309.07
2018-12-24T02:37:49.226Z,101299.02
2018-12-24T02:40:19.766Z,101306.91
2018-12-24T02:42:52.459Z,101301.20
2018-12-24T02:45:23.547Z,101309.95
2018-12-24T02:47:54.413Z,101136.45
2018-12-24T02:50:24.947Z,101310.81
2018-12-24T02:52:56.085Z,101306.47
2018-12-24T02:55:26.618Z,101306.91
2018-12-24T02:57:57.177Z,101303.85
2018-12-24T03:00:28.053Z,101303.41
2018-12-24T03:02:58.606Z,101308.66
2018-12-24T03:05:29.154Z,101313.44
2018-12-24T03:07:59.690Z,101315.63
2018-12-24T03:10:30.300Z,101312.13
2018-12-24T03:13:02.854Z,101311.25
2018-12-24T03:15:33.490Z,101315.22
2018-12-24T03:18:04.140Z,101316.06
2018-12-24T03:20:34.701Z,101319.56
2018-12-24T03:23:05.707Z,101316.94
2018-12-24T03:25:36.239Z,101312.16
2018-12-24T03:28:06.870Z,101313.03
2018-12-24T03:30:37.406Z,101315.19
2018-12-24T03:33:08.236Z,101317.41
2018-12-24T03:35:38.770Z,101317.84
2018-12-24T03:38:09.700Z,101317.41
2018-12-24T03:40:40.237Z,101316.06
2018-12-24T03:43:12.937Z,101324.83
2018-12-24T03:46:21.345Z,101327.45
2018-12-24T03:48:51.880Z,101329.63
2018-12-24T03:51:21.986Z,101330.51
2018-12-24T03:53:52.495Z,101335.31
2018-12-24T03:56:22.603Z,101337.94
2018-12-24T03:58:52.732Z,101340.57
2018-12-24T04:01:22.840Z,101341.44
2018-12-24T04:03:52.988Z,101341.87
2018-12-24T04:06:23.199Z,101341.88
2018-12-24T04:08:53.330Z,101337.95
2018-12-24T04:11:24.228Z,101336.63
2018-12-24T04:13:54.878Z,101337.95
2018-12-24T04:16:24.983Z,101337.94
2018-12-24T04:18:55.896Z,101341.46
2018-12-24T04:21:25.999Z,101339.70
2018-12-24T04:23:56.125Z,101338.39
2018-12-24T04:26:26.242Z,101345.81
2018-12-24T04:28:56.722Z,101342.31
2018-12-24T04:31:26.832Z,101337.51
2018-12-24T04:33:57.267Z,101334.89
2018-12-24T04:36:27.375Z,101332.27
2018-12-24T04:38:57.509Z,101332.70
2018-12-24T04:41:27.611Z,101336.64
2018-12-24T04:43:59.198Z,101341.44
2018-12-24T04:46:29.552Z,101343.63
2018-12-24T04:49:00.441Z,101343.64
2018-12-24T04:51:30.547Z,101340.15
2018-12-24T04:54:00.846Z,101342.31
2018-12-24T04:56:30.951Z,101346.69
2018-12-24T04:59:01.432Z,101348.42
2018-12-24T05:01:31.538Z,101349.73
2018-12-24T05:04:01.702Z,101355.45
2018-12-24T05:06:31.807Z,101351.95
2018-12-24T05:09:01.947Z,101360.23
2018-12-24T05:11:32.326Z,101354.58
2018-12-24T05:14:02.522Z,101355.89
2018-12-24T05:16:32.630Z,101365.07
2018-12-24T05:19:03.099Z,101365.51
2018-12-24T05:21:33.214Z,101363.77
2018-12-24T05:24:03.745Z,101368.11
2018-12-24T05:26:33.853Z,101375.10
2018-12-24T05:29:05.314Z,101377.29
2018-12-24T05:31:35.423Z,101374.26
2018-12-24T05:34:05.866Z,101383.84
2018-12-24T05:36:35.970Z,101375.54
2018-12-24T05:39:07.496Z,101379.04
2018-12-24T05:41:37.607Z,101385.16
2018-12-24T05:44:08.028Z,101384.28
2018-12-24T05:46:38.139Z,101395.22
2018-12-24T05:49:08.630Z,101389.97
2018-12-24T05:51:38.730Z,101390.84
2018-12-24T05:54:10.552Z,101391.28
2018-12-24T05:56:40.830Z,101401.78
2018-12-24T05:59:11.358Z,101401.78
2018-12-24T06:01:41.477Z,101402.22
2018-12-24T06:04:11.903Z,101405.27
2018-12-24T06:06:42.023Z,101414.89
2018-12-24T06:09:12.153Z,101415.33
2018-12-24T06:11:42.269Z,101424.50
2018-12-24T06:14:12.430Z,101433.69
2018-12-24T06:16:43.642Z,101427.56
2018-12-24T06:19:13.780Z,101430.19
2018-12-24T06:21:43.926Z,101433.68
2018-12-24T06:24:14.097Z,101436.30
2018-12-24T06:26:44.213Z,101440.25
2018-12-24T06:29:14.356Z,101441.55
2018-12-24T06:31:44.458Z,101441.13
2018-12-24T06:34:14.866Z,101451.17
2018-12-24T06:36:44.977Z,101450.30
2018-12-24T06:39:15.497Z,101447.23
2018-12-24T06:41:45.596Z,101450.25
2018-12-24T06:44:15.729Z,101462.92
2018-12-24T06:46:45.832Z,101464.66
2018-12-24T06:49:16.302Z,101463.78
2018-12-24T06:51:46.407Z,101475.14
2018-12-24T06:54:17.183Z,101476.89
2018-12-24T06:56:47.272Z,101480.37
2018-12-24T06:59:17.699Z,101482.11
2018-12-24T07:01:47.819Z,101486.91
2018-12-24T07:04:17.951Z,101493.45
2018-12-24T07:06:48.062Z,101494.30
2018-12-24T07:09:19.046Z,101492.06
2018-12-24T07:11:49.157Z,101489.45
2018-12-24T07:14:19.647Z,101485.49
2018-12-24T07:16:49.757Z,101489.40
2018-12-24T07:19:20.186Z,101489.36
2018-12-24T07:21:50.294Z,101488.46
2018-12-24T07:24:20.454Z,101492.39
2018-12-24T07:26:50.557Z,101488.86
2018-12-24T07:29:21.071Z,101489.28
2018-12-24T07:31:51.170Z,101488.84
2018-12-24T07:34:21.295Z,101495.83
2018-12-24T07:36:51.410Z,101497.13
2018-12-24T07:39:21.540Z,101493.63
2018-12-24T07:41:51.639Z,101499.73
2018-12-24T07:44:24.252Z,101499.69
2018-12-24T07:46:53.599Z,101498.37
2018-12-24T07:49:23.745Z,101509.75
2018-12-24T07:51:53.855Z,101512.33
2018-12-24T07:54:24.095Z,101518.42
2018-12-24T07:56:54.198Z,101509.73
2018-12-24T07:59:24.652Z,101521.52
2018-12-24T08:01:54.756Z,101523.27
2018-12-24T08:04:24.902Z,101519.34
2018-12-24T08:06:54.998Z,101520.66
2018-12-24T08:09:25.544Z,101527.20
2018-12-24T08:11:55.646Z,101531.59
2018-12-24T08:14:32.938Z,101528.98
2018-12-24T08:16:57.865Z,101528.14
2018-12-24T08:19:28.369Z,101526.81
2018-12-24T08:21:58.490Z,101527.26
2018-12-24T08:24:28.686Z,101532.95
2018-12-24T08:26:58.778Z,101530.77
2018-12-24T08:29:28.920Z,101530.83
2018-12-24T08:31:59.042Z,101534.31
2018-12-24T08:34:29.493Z,101532.16
2018-12-24T08:36:59.639Z,101530.41
2018-12-24T08:39:29.774Z,101532.18
2018-12-24T08:41:59.883Z,101535.23
2018-12-24T08:44:30.380Z,101532.20
2018-12-24T08:47:01.451Z,101530.45
2018-12-24T08:49:31.593Z,101537.02
2018-12-24T08:52:01.777Z,101533.98
2018-12-24T08:54:32.062Z,101539.67
2018-12-24T08:57:03.240Z,101532.69
2018-12-24T08:59:33.645Z,101529.69
2018-12-24T09:02:03.755Z,101527.95
2018-12-24T09:04:35.367Z,101526.66
2018-12-24T09:07:05.439Z,101531.48
2018-12-24T09:09:35.574Z,101529.70
2018-12-24T09:12:05.691Z,101530.15
2018-12-24T09:14:35.830Z,101535.41
2018-12-24T09:17:05.925Z,101530.62
2018-12-24T09:19:36.057Z,101534.14
2018-12-24T09:22:06.196Z,101522.77
2018-12-24T09:24:36.373Z,101518.86
2018-12-24T09:27:06.509Z,101521.92
2018-12-24T09:29:36.670Z,101524.59
2018-12-24T09:32:06.785Z,101518.06
2018-12-24T09:34:36.927Z,101514.15
2018-12-24T09:37:07.103Z,101515.46
2018-12-24T09:39:37.511Z,101521.16
2018-12-24T09:42:07.620Z,101521.16
2018-12-24T09:44:37.767Z,101521.65
2018-12-24T09:47:07.884Z,101526.03
2018-12-24T09:49:38.032Z,101521.66
2018-12-24T09:52:08.159Z,101522.54
2018-12-24T09:54:38.351Z,101517.73
2018-12-24T09:57:08.491Z,101525.59
2018-12-24T09:59:39.332Z,101522.98
2018-12-24T10:02:10.962Z,101521.67
2018-12-24T10:04:51.458Z,101521.67
2018-12-24T10:07:40.524Z,101518.16
2018-12-24T10:10:16.469Z,101522.09
2018-12-24T10:12:46.587Z,101524.73
2018-12-24T10:15:16.702Z,101521.23
2018-12-24T10:17:46.832Z,101523.42
2018-12-24T10:20:16.961Z,101531.28
2018-12-24T10:22:47.073Z,101522.98
2018-12-24T10:25:17.283Z,101529.98
2018-12-24T10:27:47.415Z,101515.11
2018-12-24T10:30:17.546Z,101524.73
2018-12-24T10:32:47.649Z,101524.34
2018-12-24T10:35:18.118Z,101529.15
2018-12-24T10:37:48.225Z,101522.15
2018-12-24T10:40:19.254Z,101522.59
2018-12-24T10:42:49.404Z,101524.34
2018-12-24T10:45:19.838Z,101518.20
2018-12-24T10:47:49.963Z,101513.84
2018-12-24T10:50:20.482Z,101512.08
2018-12-24T10:52:50.611Z,101516.02
2018-12-24T10:55:21.123Z,101520.39
2018-12-24T10:57:51.221Z,101517.77
2018-12-24T11:00:22.795Z,101517.33
2018-12-24T11:02:52.902Z,101521.27
2018-12-24T11:05:23.031Z,101520.83
2018-12-24T11:07:53.178Z,101518.67
2018-12-24T11:10:23.680Z,101507.73
2018-12-24T11:12:54.754Z,101504.22
2018-12-24T11:15:25.276Z,101512.09
2018-12-24T11:17:55.649Z,101503.34
2018-12-24T11:20:26.104Z,101515.59
2018-12-24T11:22:56.204Z,101519.09
2018-12-24T11:25:26.621Z,101506.39
2018-12-24T11:27:56.740Z,101507.70
2018-12-24T11:30:27.302Z,101511.21
2018-12-24T11:32:57.398Z,101507.27
2018-12-24T11:35:27.842Z,101507.70
2018-12-24T11:37:57.961Z,101507.70
2018-12-24T11:40:28.389Z,101507.27
2018-12-24T11:42:58.495Z,101497.62
2018-12-24T11:45:33.754Z,101498.93
2018-12-24T11:48:00.419Z,101499.80
2018-12-24T11:50:30.573Z,101503.31
2018-12-24T11:53:00.691Z,101497.63
2018-12-24T11:55:31.490Z,101499.81
2018-12-24T11:58:01.693Z,101503.77
2018-12-24T12:00:31.846Z,101501.58
2018-12-24T12:03:01.961Z,101498.95
2018-12-24T12:05:32.422Z,101496.33
2018-12-24T12:08:02.611Z,101493.25
2018-12-24T12:10:32.746Z,101488.88
2018-12-24T12:13:02.865Z,101484.94
2018-12-24T12:15:32.986Z,101490.61
2018-12-24T12:18:03.106Z,101493.25
2018-12-24T12:20:33.246Z,101493.25
2018-12-24T12:23:03.366Z,101493.25
2018-12-24T12:25:33.579Z,101495.00
2018-12-24T12:28:03.685Z,101489.73
2018-12-24T12:30:33.822Z,101491.91
2018-12-24T12:33:04.998Z,101499.78
2018-12-24T12:35:35.125Z,101498.91
2018-12-24T12:38:05.241Z,101501.52
2018-12-24T12:40:35.429Z,101505.45
2018-12-24T12:43:05.556Z,101492.31
2018-12-24T12:45:35.683Z,101489.26
2018-12-24T12:48:05.787Z,101488.38
2018-12-24T12:50:35.925Z,101497.16
2018-12-24T12:53:06.830Z,101501.97
2018-12-24T12:55:37.280Z,101498.89
2018-12-24T12:58:07.389Z,101501.95
2018-12-24T13:00:37.833Z,101500.64
2018-12-24T13:03:07.943Z,101499.34
2018-12-24T13:05:38.184Z,101507.20
2018-12-24T13:08:08.269Z,101506.34
2018-12-24T13:10:38.395Z,101498.44
2018-12-24T13:13:08.521Z,101504.16
2018-12-24T13:15:38.665Z,101508.56
2018-12-24T13:18:08.776Z,101505.92
2018-12-24T13:20:39.253Z,101498.03
2018-12-24T13:23:09.357Z,101500.23
2018-12-24T13:25:39.484Z,101501.55
2018-12-24T13:28:09.594Z,101491.48
2018-12-24T13:30:40.005Z,101489.30
2018-12-24T13:33:10.111Z,101494.55
2018-12-24T13:35:40.627Z,101493.23
2018-12-24T13:38:10.731Z,101500.69
2018-12-24T13:40:40.922Z,101499.80
2018-12-24T13:43:11.062Z,101502.88
2018-12-24T13:45:41.186Z,101506.38
2018-12-24T13:48:11.308Z,101505.95
2018-12-24T13:50:41.449Z,101506.41
2018-12-24T13:53:11.582Z,101511.66
2018-12-24T13:55:43.241Z,101514.72
2018-12-24T13:58:13.351Z,101505.08
2018-12-24T14:00:43.505Z,101512.52
2018-12-24T14:03:13.618Z,101514.28
2018-12-24T14:05:44.111Z,101507.26
2018-12-24T14:08:14.217Z,101515.58
2018-12-24T14:10:44.351Z,101519.94
2018-12-24T14:13:14.459Z,101518.63
2018-12-24T14:15:44.995Z,101511.17
2018-12-24T14:18:15.069Z,101517.30
2018-12-24T14:20:45.213Z,101514.66
2018-12-24T14:23:15.330Z,101515.13
2018-12-24T14:25:46.525Z,101511.18
2018-12-24T14:28:16.631Z,101512.05
2018-12-24T14:30:47.139Z,101505.93
2018-12-24T14:33:17.238Z,101512.06
2018-12-24T14:35:47.688Z,101518.65
2018-12-24T14:38:17.794Z,101518.21
2018-12-24T14:40:47.938Z,101514.27
2018-12-24T14:43:18.036Z,101511.65
2018-12-24T14:45:48.471Z,101510.33
2018-12-24T14:48:18.603Z,101499.80
2018-12-24T14:50:49.078Z,101506.81
2018-12-24T14:53:19.185Z,101505.50
2018-12-24T14:55:49.406Z,101514.69
2018-12-24T14:58:19.504Z,101509.00
2018-12-24T15:00:50.990Z,101511.20
2018-12-24T15:03:21.090Z,101513.84
2018-12-24T15:05:51.575Z,101510.33
2018-12-24T15:08:21.685Z,101517.33
2018-12-24T15:10:51.823Z,101521.27
2018-12-24T15:13:21.926Z,101525.22
2018-12-24T15:15:52.061Z,101518.22
2018-12-24T15:18:22.174Z,101530.47
2018-12-24T15:20:52.306Z,101523.03
2018-12-24T15:23:22.407Z,101523.47
2018-12-24T15:25:52.571Z,101523.05
2018-12-24T15:28:22.665Z,101507.72
2018-12-24T15:30:53.177Z,101506.41
2018-12-24T15:33:23.282Z,101505.97
2018-12-24T15:35:53.720Z,101516.48
2018-12-24T15:38:23.926Z,101512.09
2018-12-24T15:40:54.374Z,101516.91
2018-12-24T15:43:24.569Z,101517.34
2018-12-24T15:45:54.971Z,101506.39
2018-12-24T15:48:25.087Z,101502.02
2018-12-24T15:50:55.563Z,101500.70
2018-12-24T15:53:25.661Z,101496.32
2018-12-24T15:55:56.221Z,101491.94
2018-12-24T15:58:26.320Z,101486.67
2018-12-24T16:00:56.448Z,101488.44
2018-12-24T16:03:26.556Z,101491.05
2018-12-24T16:05:56.693Z,101490.61
2018-12-24T16:08:26.797Z,101494.55
2018-12-24T16:10:56.942Z,101496.73
2018-12-24T16:13:27.044Z,101492.35
2018-12-24T16:15:57.166Z,101491.03
2018-12-24T16:18:28.250Z,101493.22
2018-12-24T16:20:58.383Z,101493.21
2018-12-24T16:23:28.499Z,101497.59
2018-12-24T16:25:58.657Z,101494.97
2018-12-24T16:28:28.782Z,101492.78
2018-12-24T16:30:58.922Z,101494.98
2018-12-24T16:33:30.660Z,101495.86
2018-12-24T16:36:00.837Z,101498.91
2018-12-24T16:38:30.937Z,101499.80
2018-12-24T16:41:01.074Z,101497.59
2018-12-24T16:43:31.195Z,101498.91
2018-12-24T16:46:01.664Z,101494.98
2018-12-24T16:48:31.774Z,101494.53
2018-12-24T16:51:02.210Z,101482.23
2018-12-24T16:53:40.318Z,101487.08
2018-12-24T16:56:04.699Z,101482.25
2018-12-24T16:58:34.807Z,101493.22
2018-12-24T17:01:04.947Z,101499.80
2018-12-24T17:03:35.222Z,101497.20
2018-12-24T17:06:05.997Z,101488.45
2018-12-24T17:08:36.098Z,101498.06
2018-12-24T17:11:06.544Z,101493.69
2018-12-24T17:13:36.654Z,101488.44
2018-12-24T17:16:07.088Z,101486.67
2018-12-24T17:18:37.226Z,101488.86
2018-12-24T17:21:07.370Z,101483.17
2018-12-24T17:23:37.485Z,101481.41
2018-12-24T17:26:07.610Z,101474.40
2018-12-24T17:28:37.709Z,101482.75
2018-12-24T17:31:08.220Z,101479.67
2018-12-24T17:33:38.352Z,101484.05
2018-12-24T17:36:08.866Z,101486.22
2018-12-24T17:38:38.991Z,101490.58
2018-12-24T17:41:09.609Z,101488.81
2018-12-24T17:43:39.722Z,101488.36
2018-12-24T17:46:09.843Z,101484.00
2018-12-24T17:48:39.971Z,101483.98
2018-12-24T17:51:10.394Z,101480.87
2018-12-24T17:53:40.513Z,101482.17
2018-12-24T17:56:11.047Z,101476.45
2018-12-24T17:58:41.154Z,101472.05
2018-12-24T18:01:11.281Z,101473.81
2018-12-24T18:03:41.389Z,101470.73
2018-12-24T18:06:11.782Z,101474.23
2018-12-24T18:08:41.890Z,101466.34
2018-12-24T18:11:12.053Z,101476.84
2018-12-24T18:13:42.177Z,101474.63
2018-12-24T18:16:12.318Z,101472.41
2018-12-24T18:18:42.440Z,101464.50
2018-12-24T18:21:12.678Z,101467.99
2018-12-24T18:23:42.787Z,101467.53
2018-12-24T18:26:12.916Z,101469.72
2018-12-24T18:28:43.107Z,101467.06
2018-12-24T18:31:19.945Z,101457.88
2018-12-24T18:33:45.053Z,101456.11
2018-12-24T18:36:15.722Z,101465.77
2018-12-24T18:38:46.802Z,101469.31
2018-12-24T18:41:17.256Z,101471.95
2018-12-24T18:43:47.362Z,101476.32
2018-12-24T18:46:17.660Z,101474.59
2018-12-24T18:48:47.765Z,101474.57
2018-12-24T18:51:18.271Z,101475.04
2018-12-24T18:53:48.369Z,101477.64
2018-12-24T18:56:18.863Z,101470.21
2018-12-24T18:58:48.983Z,101458.84
2018-12-24T19:01:19.103Z,101466.24
2018-12-24T19:03:49.253Z,101458.34
2018-12-24T19:06:19.405Z,101454.84
2018-12-24T19:08:49.507Z,101456.20
2018-12-24T19:11:20.552Z,101451.80
2018-12-24T19:13:50.656Z,101443.04
2018-12-24T19:16:21.105Z,101436.91
2018-12-24T19:18:51.215Z,101432.05
2018-12-24T19:21:21.342Z,101427.61
2018-12-24T19:23:52.429Z,101430.67
2018-12-24T19:26:22.591Z,101427.12
2018-12-24T19:28:52.697Z,101428.41
2018-12-24T19:31:22.823Z,101435.36
2018-12-24T19:33:53.014Z,101426.11
2018-12-24T19:36:23.235Z,101427.41
2018-12-24T19:38:53.342Z,101420.83
2018-12-24T19:41:24.183Z,101414.73
2018-12-24T19:43:54.279Z,101413.82
2018-12-24T19:46:24.446Z,101407.67
2018-12-24T19:48:54.545Z,101408.55
2018-12-24T19:51:24.686Z,101403.29
2018-12-24T19:53:54.797Z,101391.84
2018-12-24T19:56:25.035Z,101393.16
2018-12-24T19:58:55.155Z,101390.96
2018-12-24T20:01:25.315Z,101389.63
2018-12-24T20:03:55.425Z,101387.88
2018-12-24T20:06:25.598Z,101387.81
2018-12-24T20:08:55.774Z,101379.95
2018-12-24T20:11:26.410Z,101379.09
2018-12-24T20:13:56.534Z,101374.70
2018-12-24T20:16:26.678Z,101380.44
2018-12-24T20:18:56.781Z,101379.64
2018-12-24T20:21:26.913Z,101372.19
2018-12-24T20:23:57.025Z,101371.30
2018-12-24T20:26:27.860Z,101369.10
2018-12-24T20:28:57.981Z,101371.34
2018-12-24T20:31:28.465Z,101362.13
2018-12-24T20:33:58.578Z,101363.05
2018-12-24T20:36:29.012Z,101358.64
2018-12-24T20:38:59.335Z,101359.09
2018-12-24T20:41:29.643Z,101348.55
2018-12-24T20:43:59.761Z,101350.30
2018-12-24T20:46:29.912Z,101351.63
2018-12-24T20:49:00.053Z,101356.92
2018-12-24T20:51:30.253Z,101361.36
2018-12-24T20:54:00.372Z,101359.16
2018-12-24T20:56:30.620Z,101359.19
2018-12-24T20:59:00.731Z,101346.38
2018-12-24T21:01:31.288Z,101336.28
2018-12-24T21:04:01.371Z,101327.01
2018-12-24T21:06:31.517Z,101319.52
2018-12-24T21:09:01.616Z,101310.75
2018-12-24T21:11:32.950Z,101313.30
2018-12-24T21:14:03.054Z,101315.02
2018-12-24T21:16:33.199Z,101301.84
2018-12-24T21:19:03.315Z,101289.61
2018-12-24T21:21:33.455Z,101288.04
2018-12-24T21:24:03.563Z,101284.81
2018-12-24T21:26:33.700Z,101278.19
2018-12-24T21:29:03.883Z,101271.16
2018-12-24T21:31:34.010Z,101275.53
2018-12-24T21:34:04.136Z,101268.86
2018-12-24T21:36:34.270Z,101267.95
2018-12-24T21:39:06.201Z,101263.09
2018-12-24T21:41:36.335Z,101259.59
2018-12-24T21:44:06.459Z,101253.78
2018-12-24T21:46:36.599Z,101247.64
2018-12-24T21:49:06.706Z,101247.59
2018-12-24T21:51:36.915Z,101246.71
2018-12-24T21:54:07.096Z,101237.48
2018-12-24T21:56:37.371Z,101235.30
2018-12-24T21:59:07.475Z,101240.53
2018-12-24T22:01:37.981Z,101233.94
2018-12-24T22:04:08.103Z,101237.94
2018-12-24T22:06:38.237Z,101234.33
2018-12-24T22:09:09.804Z,101223.42
2018-12-24T22:11:39.962Z,101217.27
2018-12-24T22:14:10.062Z,101219.49
2018-12-24T22:16:40.465Z,101229.10
2018-12-24T22:19:10.582Z,101234.41
2018-12-24T22:21:40.724Z,101225.17
2018-12-24T22:24:10.909Z,101226.06
2018-12-24T22:26:41.048Z,101220.77
2018-12-24T22:29:11.156Z,101217.56
2018-12-24T22:31:41.363Z,101210.88
2018-12-24T22:34:11.491Z,101206.91
2018-12-24T22:36:41.627Z,101193.60
2018-12-24T22:39:11.758Z,101181.74
2018-12-24T22:41:41.988Z,101184.14
2018-12-24T22:44:12.081Z,101186.17
2018-12-24T22:46:42.580Z,101186.66
2018-12-24T22:49:12.690Z,101170.94
2018-12-24T22:51:43.102Z,101163.85
2018-12-24T22:54:13.227Z,101155.75
2018-12-24T22:56:43.982Z,101159.95
2018-12-24T22:59:14.088Z,101148.53
2018-12-24T23:01:44.523Z,101146.70
2018-12-24T23:04:14.629Z,101142.70
2018-12-24T23:06:44.758Z,101139.50
2018-12-24T23:09:14.876Z,101140.39
2018-12-24T23:11:45.013Z,101133.64
2018-12-24T23:14:15.446Z,101124.74
2018-12-24T23:16:45.581Z,101125.61
2018-12-24T23:19:15.678Z,101130.33
2018-12-24T23:21:45.807Z,101130.33
2018-12-24T23:24:15.923Z,101123.05
2018-12-24T23:26:46.079Z,101110.70
2018-12-24T23:29:16.359Z,101111.16
2018-12-24T23:31:46.495Z,101028.97
2018-12-24T23:34:16.609Z,101109.08
2018-12-24T23:36:46.749Z,101114.84
2018-12-24T23:39:16.867Z,101111.57
2018-12-24T23:41:47.009Z,101097.03
2018-12-24T23:44:17.116Z,101104.27
2018-12-24T23:46:47.585Z,101100.77
2018-12-24T23:49:17.690Z,101101.22
2018-12-24T23:51:48.130Z,101097.97
2018-12-24T23:54:18.244Z,101090.92
2018-12-24T23:56:48.551Z,101086.07
2018-12-24T23:59:18.658Z,101086.84
